Time;durP1;ratioP1;P1;durP2;ratioP2;P2;SDS_P1;SDS_P2;PMS_P1;PMS_P2;Temp;Humidity;BMP_temperature;BMP_pressure;BME280_temperature;BME280_humidity;BME280_pressure;Samples;Min_cycle;Max_cycle;Signal;HPM_P1;HPM_P2
2022/03/14 00:01:29;;;;;;;55.58;49.10;;;27.90;97.80;;;;;;4162388;28;20048;-72
2022/03/14 00:03:48;;;;;;;64.95;49.95;;;27.90;97.80;;;;;;4168694;28;20079;-70
2022/03/14 00:05:53;;;;;;;60.95;49.17;;;27.90;97.80;;;;;;4168587;28;20060;-68
2022/03/14 00:08:01;;;;;;;62.75;50.22;;;27.90;97.60;;;;;;4164445;28;20049;-69
2022/03/14 00:10:08;;;;;;;62.35;49.65;;;27.90;97.50;;;;;;4163367;28;20751;-70
2022/03/14 00:12:17;;;;;;;61.65;48.40;;;28.00;97.50;;;;;;4166058;28;20610;-69
2022/03/14 00:14:25;;;;;;;66.40;50.58;;;28.00;97.50;;;;;;4167208;28;20069;-71
2022/03/14 00:16:36;;;;;;;62.00;49.72;;;28.10;97.40;;;;;;4156370;28;20478;-69
2022/03/14 00:18:51;;;;;;;61.97;48.53;;;28.10;97.40;;;;;;4153132;28;20987;-70
2022/03/14 00:20:57;;;;;;;66.20;49.80;;;28.10;97.30;;;;;;4187446;28;20082;-72
2022/03/14 00:23:08;;;;;;;58.15;50.25;;;28.20;97.30;;;;;;4162068;28;20382;-71
2022/03/14 00:25:17;;;;;;;61.85;49.38;;;28.30;97.30;;;;;;4132379;28;21695;-71
2022/03/14 00:27:25;;;;;;;59.55;49.17;;;28.30;97.20;;;;;;4143931;28;20042;-69
2022/03/14 00:29:32;;;;;;;60.42;48.83;;;28.30;97.10;;;;;;4164095;28;20037;-72
2022/03/14 00:31:48;;;;;;;65.30;48.97;;;28.30;97.20;;;;;;4162694;28;20053;-71
2022/03/14 00:34:14;;;;;;;59.72;47.35;;;28.40;97.20;;;;;;4134525;28;20053;-69
2022/03/14 00:36:25;;;;;;;55.05;46.35;;;28.40;97.00;;;;;;4136487;28;20109;-70
2022/03/14 00:38:40;;;;;;;55.15;45.30;;;28.40;96.90;;;;;;4142755;28;20096;-70
2022/03/14 00:40:52;;;;;;;56.22;44.75;;;28.50;96.80;;;;;;4145159;28;20141;-69
2022/03/14 00:42:57;;;;;;;53.42;45.72;;;28.50;96.60;;;;;;4160870;28;20045;-70
2022/03/14 00:45:02;;;;;;;53.50;45.60;;;28.60;96.50;;;;;;4159202;28;20059;-70
2022/03/14 00:47:11;;;;;;;55.03;44.30;;;28.60;96.40;;;;;;4145586;28;20133;-70
2022/03/14 00:49:16;;;;;;;55.15;45.38;;;28.60;96.30;;;;;;4162354;28;20359;-72
2022/03/14 00:51:21;;;;;;;51.70;45.17;;;28.60;96.20;;;;;;4159857;28;20674;-70
2022/03/14 00:53:32;;;;;;;55.22;45.08;;;28.60;96.10;;;;;;4159425;28;20138;-70
2022/03/14 00:55:37;;;;;;;55.40;44.00;;;28.70;96.00;;;;;;4160251;28;20049;-71
2022/03/14 00:57:44;;;;;;;55.75;44.17;;;28.80;96.00;;;;;;4162423;28;20139;-71
2022/03/14 00:59:52;;;;;;;51.85;44.05;;;28.80;95.80;;;;;;4162568;28;20090;-70
2022/03/14 01:01:58;;;;;;;53.95;45.05;;;28.80;95.70;;;;;;4163519;28;20504;-72
2022/03/14 01:04:03;;;;;;;57.40;45.40;;;28.80;95.70;;;;;;4162834;28;20042;-72
2022/03/14 01:06:14;;;;;;;50.28;44.35;;;28.80;95.60;;;;;;4165826;28;20069;-70
2022/03/14 01:08:18;;;;;;;55.30;43.70;;;28.80;95.50;;;;;;4156487;28;20053;-71
2022/03/14 01:10:23;;;;;;;54.90;44.33;;;28.90;95.40;;;;;;4146716;28;20104;-70
2022/03/14 01:12:30;;;;;;;53.72;44.33;;;28.90;95.30;;;;;;4162369;28;20065;-70
2022/03/14 01:14:35;;;;;;;52.17;43.72;;;29.00;95.30;;;;;;4160374;28;20041;-68
2022/03/14 01:16:41;;;;;;;51.30;43.05;;;29.00;95.30;;;;;;4164822;28;20536;-70
2022/03/14 01:18:50;;;;;;;58.25;42.92;;;29.10;95.20;;;;;;4166397;28;20049;-71
2022/03/14 01:20:58;;;;;;;64.53;45.10;;;29.10;95.20;;;;;;4129452;28;20046;-70
2022/03/14 01:23:09;;;;;;;54.35;43.05;;;29.10;95.10;;;;;;4151520;28;20042;-70
2022/03/14 01:25:26;;;;;;;54.15;43.13;;;29.20;95.10;;;;;;4159635;28;20046;-71
2022/03/14 01:27:43;;;;;;;48.33;41.25;;;29.20;94.80;;;;;;4130816;28;20058;-71
2022/03/14 01:29:49;;;;;;;51.70;41.53;;;29.30;94.50;;;;;;4163635;28;20053;-71
2022/03/14 01:31:54;;;;;;;51.63;40.78;;;29.30;94.50;;;;;;4164074;28;20052;-70
2022/03/14 01:34:01;;;;;;;50.60;41.22;;;29.40;94.40;;;;;;4180950;28;20048;-70
2022/03/14 01:36:08;;;;;;;50.97;40.20;;;29.40;94.20;;;;;;4149119;28;20053;-69
2022/03/14 01:38:15;;;;;;;45.90;40.17;;;29.40;94.20;;;;;;4132792;28;20058;-70
2022/03/14 01:40:20;;;;;;;47.28;40.75;;;29.50;94.10;;;;;;4148761;28;20057;-70
2022/03/14 01:42:35;;;;;;;49.00;39.60;;;29.50;94.00;;;;;;4164061;28;20551;-68
2022/03/14 01:44:46;;;;;;;43.47;38.60;;;29.60;94.10;;;;;;4172973;28;20041;-70
2022/03/14 01:46:56;;;;;;;50.17;40.58;;;29.60;94.10;;;;;;4157136;28;20093;-69
2022/03/14 01:49:09;;;;;;;51.95;40.95;;;29.70;94.10;;;;;;4172002;28;20068;-69
2022/03/14 01:51:20;;;;;;;48.60;41.03;;;29.70;94.10;;;;;;4173091;28;20542;-69
2022/03/14 01:53:26;;;;;;;48.17;40.35;;;29.70;93.80;;;;;;4170484;28;20088;-68
2022/03/14 01:55:34;;;;;;;46.80;40.20;;;29.80;93.70;;;;;;4157241;28;20083;-71
2022/03/14 01:57:48;;;;;;;45.47;38.95;;;29.90;93.70;;;;;;4156991;28;20041;-71
2022/03/14 01:59:54;;;;;;;45.67;38.67;;;30.00;93.80;;;;;;4133591;28;20085;-71
2022/03/14 02:01:59;;;;;;;45.13;39.35;;;30.00;93.80;;;;;;4132082;28;20046;-71
2022/03/14 02:04:08;;;;;;;46.65;39.45;;;30.10;93.50;;;;;;4147500;28;20069;-71
2022/03/14 02:06:13;;;;;;;48.72;38.75;;;30.10;93.60;;;;;;4096357;28;20058;-70
2022/03/14 02:08:18;;;;;;;51.10;41.15;;;30.10;93.60;;;;;;4125226;28;20049;-71
2022/03/14 02:10:27;;;;;;;51.80;41.97;;;30.10;93.40;;;;;;4115663;28;20046;-71
2022/03/14 02:12:32;;;;;;;47.50;40.30;;;30.20;93.20;;;;;;4129222;28;20108;-70
2022/03/14 02:14:41;;;;;;;49.78;41.22;;;30.20;93.20;;;;;;4130238;28;20548;-70
2022/03/14 02:16:49;;;;;;;49.25;41.03;;;30.20;93.00;;;;;;4128825;28;20133;-71
2022/03/14 02:18:57;;;;;;;54.05;41.08;;;30.30;92.90;;;;;;4131144;28;20746;-71
2022/03/14 02:21:11;;;;;;;48.72;41.25;;;30.40;92.90;;;;;;4109808;28;20158;-71
2022/03/14 02:23:20;;;;;;;47.28;40.05;;;30.40;92.90;;;;;;4111397;28;20371;-70
2022/03/14 02:25:25;;;;;;;48.97;40.40;;;30.40;92.80;;;;;;4129337;28;20058;-72
2022/03/14 02:27:30;;;;;;;47.40;41.05;;;30.50;92.90;;;;;;4132100;28;20198;-72
2022/03/14 02:29:40;;;;;;;51.13;41.55;;;30.50;92.80;;;;;;4112100;28;20043;-70
2022/03/14 02:31:46;;;;;;;49.38;41.67;;;30.60;92.70;;;;;;4158733;28;20558;-70
2022/03/14 02:33:53;;;;;;;46.95;41.15;;;30.60;92.60;;;;;;4149558;28;20496;-71
2022/03/14 02:36:03;;;;;;;53.53;42.05;;;30.50;92.40;;;;;;4131746;28;20125;-66
2022/03/14 02:38:15;;;;;;;51.95;42.40;;;30.50;92.40;;;;;;4149690;28;20085;-65
2022/03/14 02:40:22;;;;;;;53.58;43.65;;;30.50;92.40;;;;;;4166100;28;20310;-66
2022/03/14 02:42:29;;;;;;;52.15;44.53;;;30.60;92.50;;;;;;4167714;28;20049;-66
2022/03/14 02:44:34;;;;;;;52.83;42.72;;;30.70;92.40;;;;;;4170224;28;20052;-66
2022/03/14 02:46:56;;;;;;;53.05;43.50;;;30.80;92.40;;;;;;4137649;28;20050;-65
2022/03/14 02:49:15;;;;;;;48.38;42.08;;;30.80;92.20;;;;;;4167990;28;20046;-66
2022/03/14 02:51:20;;;;;;;52.60;41.13;;;30.90;92.30;;;;;;4169572;28;20053;-66
2022/03/14 02:53:28;;;;;;;49.42;41.25;;;30.90;92.30;;;;;;4176111;28;20626;-68
2022/03/14 02:55:42;;;;;;;46.45;40.33;;;30.90;92.20;;;;;;4175847;28;20053;-66
2022/03/14 02:57:46;;;;;;;54.90;42.85;;;31.00;92.20;;;;;;4168215;28;20045;-66
2022/03/14 03:03:40;;;;;;;46.78;41.15;;;31.00;92.10;;;;;;4152477;28;20528;-65
2022/03/14 03:05:48;;;;;;;49.85;40.55;;;31.00;92.20;;;;;;4158810;28;20110;-65
2022/03/14 03:07:59;;;;;;;50.90;41.08;;;31.00;92.20;;;;;;4142956;28;20046;-66
2022/03/14 03:10:04;;;;;;;48.35;41.63;;;31.10;92.10;;;;;;4130248;28;20053;-66
2022/03/14 03:12:17;;;;;;;49.70;41.30;;;31.10;92.00;;;;;;4149517;28;20827;-64
2022/03/14 03:14:23;;;;;;;50.28;40.80;;;31.10;91.70;;;;;;4137446;28;20046;-66
2022/03/14 03:16:32;;;;;;;51.85;41.88;;;31.20;91.80;;;;;;4143282;28;20040;-65
2022/03/14 03:18:48;;;;;;;53.25;42.42;;;31.30;91.90;;;;;;4151847;28;20431;-65
2022/03/14 03:20:56;;;;;;;55.58;40.78;;;31.30;91.90;;;;;;4151337;28;20042;-67
2022/03/14 03:23:09;;;;;;;49.08;40.78;;;31.40;91.70;;;;;;4130633;28;20074;-66
2022/03/14 03:25:18;;;;;;;60.40;43.13;;;31.50;91.50;;;;;;4153337;28;20054;-66
2022/03/14 03:27:57;;;;;;;48.30;41.28;;;31.50;91.40;;;;;;4120962;28;20055;-65
2022/03/14 03:30:07;;;;;;;47.95;40.50;;;31.60;91.20;;;;;;4152200;28;20077;-67
2022/03/14 03:32:13;;;;;;;48.00;41.45;;;31.60;91.10;;;;;;4144183;28;20050;-69
2022/03/14 03:34:18;;;;;;;51.53;41.08;;;31.70;91.10;;;;;;4120888;28;20058;-71
2022/03/14 03:36:28;;;;;;;47.20;41.88;;;31.80;91.20;;;;;;4121087;28;20565;-68
2022/03/14 03:38:49;;;;;;;50.15;41.30;;;31.80;91.00;;;;;;4126973;28;20086;-68
2022/03/14 03:44:41;;;;;;;48.97;40.25;;;32.00;91.00;;;;;;4145831;28;20034;-69
2022/03/14 03:47:18;;;;;;;46.42;39.45;;;32.10;90.90;;;;;;4136447;28;20046;-69
2022/03/14 03:49:43;;;;;;;46.10;38.88;;;32.10;90.40;;;;;;4137270;28;20054;-69
2022/03/14 03:51:47;;;;;;;46.10;38.35;;;32.10;90.60;;;;;;4133212;28;20199;-67
2022/03/14 03:53:58;;;;;;;48.33;38.97;;;32.30;90.50;;;;;;4119137;28;20049;-69
2022/03/14 03:56:14;;;;;;;45.63;40.40;;;32.40;90.60;;;;;;4131328;28;20077;-67
2022/03/14 03:58:36;;;;;;;46.63;38.50;;;32.40;90.00;;;;;;4115874;28;20438;-69
2022/03/14 04:00:41;;;;;;;44.42;39.33;;;32.40;90.30;;;;;;4131031;28;20517;-67
2022/03/14 04:02:50;;;;;;;53.45;40.17;;;32.50;90.00;;;;;;4115944;28;20046;-69
2022/03/14 04:05:05;;;;;;;46.25;40.72;;;32.50;89.60;;;;;;4131496;28;20054;-68
2022/03/14 04:07:10;;;;;;;46.20;38.88;;;32.50;89.30;;;;;;4117116;28;20066;-68
2022/03/14 04:09:16;;;;;;;47.25;39.55;;;32.50;89.30;;;;;;4130380;28;20053;-68
2022/03/14 04:11:23;;;;;;;45.17;38.50;;;32.60;89.20;;;;;;4129028;28;20070;-67
2022/03/14 04:13:30;;;;;;;44.80;37.15;;;32.60;89.30;;;;;;4128003;28;20046;-67
2022/03/14 04:15:46;;;;;;;44.65;37.88;;;32.70;89.50;;;;;;4129086;28;20054;-68
2022/03/14 04:17:56;;;;;;;45.55;39.95;;;32.80;89.40;;;;;;4126642;28;20054;-68
2022/03/14 04:20:08;;;;;;;43.70;38.90;;;32.80;89.00;;;;;;4123981;28;20167;-67
2022/03/14 04:22:15;;;;;;;48.97;38.35;;;32.80;88.40;;;;;;4160922;28;20073;-68
2022/03/14 04:24:21;;;;;;;42.80;37.97;;;32.80;88.40;;;;;;4162373;28;20045;-67
2022/03/14 04:26:28;;;;;;;41.08;36.47;;;32.80;88.30;;;;;;4164270;28;20053;-67
2022/03/14 04:28:36;;;;;;;43.80;37.17;;;32.90;88.40;;;;;;4164211;28;20802;-68
2022/03/14 04:30:43;;;;;;;43.80;37.08;;;33.00;88.00;;;;;;4164760;28;20045;-68
2022/03/14 04:32:49;;;;;;;45.08;36.25;;;33.00;88.30;;;;;;4193303;28;20163;-68
2022/03/14 04:34:57;;;;;;;42.55;37.03;;;33.10;87.80;;;;;;4165584;28;20088;-68
2022/03/14 04:37:03;;;;;;;42.88;36.38;;;33.10;87.80;;;;;;4166205;28;20052;-68
2022/03/14 04:39:16;;;;;;;43.60;36.67;;;33.20;86.90;;;;;;4171946;28;20075;-69
2022/03/14 04:42:02;;;;;;;42.17;36.58;;;33.20;87.30;;;;;;4143177;28;20053;-69
2022/03/14 04:44:21;;;;;;;42.00;36.38;;;33.20;88.00;;;;;;4141308;28;20381;-68
2022/03/14 04:46:26;;;;;;;41.42;36.13;;;33.30;87.30;;;;;;4165595;28;20048;-68
2022/03/14 04:48:33;;;;;;;42.85;35.90;;;33.30;87.40;;;;;;4164066;28;20112;-71
2022/03/14 04:50:39;;;;;;;41.00;34.17;;;33.30;87.70;;;;;;4167435;28;20484;-71
2022/03/14 04:52:43;;;;;;;38.80;34.33;;;33.30;87.70;;;;;;4166929;28;20129;-69
2022/03/14 04:54:50;;;;;;;40.90;34.97;;;33.40;87.40;;;;;;4178728;28;20045;-70
2022/03/14 04:56:58;;;;;;;41.20;35.38;;;33.50;86.90;;;;;;4173037;28;20067;-70
2022/03/14 04:59:04;;;;;;;40.45;33.85;;;33.50;86.60;;;;;;4168250;28;20037;-70
2022/03/14 05:01:11;;;;;;;40.53;36.15;;;33.50;86.40;;;;;;4168508;28;20046;-69
2022/03/14 05:03:21;;;;;;;44.15;36.53;;;33.50;86.10;;;;;;4168427;28;20053;-71
2022/03/14 05:05:29;;;;;;;41.50;36.33;;;33.50;86.00;;;;;;4164113;28;20048;-70
2022/03/14 05:07:36;;;;;;;40.90;34.78;;;33.60;86.60;;;;;;4164767;28;20053;-71
2022/03/14 05:09:48;;;;;;;45.03;36.47;;;33.60;86.50;;;;;;4162439;28;20116;-70
2022/03/14 05:11:56;;;;;;;46.08;38.75;;;33.60;86.10;;;;;;4150847;28;21042;-69
2022/03/14 05:14:04;;;;;;;40.92;36.40;;;33.70;87.20;;;;;;4189733;28;20044;-69
2022/03/14 05:16:14;;;;;;;42.90;35.10;;;33.70;87.20;;;;;;4189878;28;20122;-69
2022/03/14 05:18:19;;;;;;;41.63;37.03;;;33.70;86.40;;;;;;4161025;28;20092;-70
2022/03/14 05:20:26;;;;;;;44.97;35.30;;;33.70;86.60;;;;;;4150494;28;20126;-70
2022/03/14 05:22:32;;;;;;;39.08;34.97;;;33.70;86.40;;;;;;4166738;28;20299;-70
2022/03/14 05:24:37;;;;;;;42.30;35.17;;;33.80;86.40;;;;;;4169155;28;20038;-69
2022/03/14 05:26:54;;;;;;;43.05;34.50;;;33.80;86.50;;;;;;4167030;28;20053;-70
2022/03/14 05:29:14;;;;;;;42.90;34.90;;;33.80;86.60;;;;;;4168074;28;20145;-71
2022/03/14 05:31:22;;;;;;;38.92;34.47;;;33.80;86.60;;;;;;4149472;28;20573;-71
2022/03/14 05:33:30;;;;;;;40.20;34.80;;;33.90;86.50;;;;;;4153487;28;20110;-70
2022/03/14 05:35:35;;;;;;;37.65;33.75;;;33.90;87.10;;;;;;4153758;28;20194;-69
2022/03/14 05:37:40;;;;;;;39.92;34.22;;;33.90;86.20;;;;;;4170196;28;20045;-70
2022/03/14 05:39:48;;;;;;;38.30;33.08;;;33.90;85.80;;;;;;4169258;28;20084;-70
2022/03/14 05:41:55;;;;;;;42.05;35.22;;;33.90;86.50;;;;;;4170259;28;20052;-70
2022/03/14 05:44:04;;;;;;;37.35;32.97;;;34.00;86.80;;;;;;4192047;28;20377;-72
2022/03/14 05:46:14;;;;;;;39.92;32.75;;;34.10;86.90;;;;;;4173868;28;20051;-70
2022/03/14 05:48:24;;;;;;;39.78;33.55;;;34.10;87.20;;;;;;4161140;28;20080;-71
2022/03/14 05:50:35;;;;;;;38.72;32.50;;;34.10;86.70;;;;;;4169179;28;20049;-70
2022/03/14 05:55:23;;;;;;;39.53;33.10;;;34.20;86.00;;;;;;4144665;28;20060;-70
2022/03/14 05:57:30;;;;;;;39.65;32.05;;;34.20;86.00;;;;;;4169423;28;20034;-70
2022/03/14 05:59:53;;;;;;;35.35;31.67;;;34.20;85.40;;;;;;4168222;28;20452;-70
2022/03/14 06:02:02;;;;;;;37.25;32.10;;;34.20;85.10;;;;;;4159807;28;20054;-69
2022/03/14 06:04:10;;;;;;;37.42;31.92;;;34.20;85.30;;;;;;4170952;28;20045;-70
2022/03/14 06:06:19;;;;;;;36.83;32.20;;;34.20;85.20;;;;;;4153286;28;20440;-70
2022/03/14 06:08:24;;;;;;;36.25;30.38;;;34.20;84.70;;;;;;4173147;28;20103;-71
2022/03/14 06:10:29;;;;;;;35.75;30.38;;;34.20;83.90;;;;;;4136139;28;20038;-70
2022/03/14 06:12:37;;;;;;;33.72;29.80;;;34.20;84.00;;;;;;4168577;28;20045;-70
2022/03/14 06:14:43;;;;;;;37.60;31.10;;;34.20;84.50;;;;;;4192045;28;20140;-72
2022/03/14 06:16:48;;;;;;;34.67;30.13;;;34.30;84.50;;;;;;4189081;28;20048;-70
2022/03/14 06:19:01;;;;;;;38.75;31.85;;;34.30;84.70;;;;;;4176568;28;20037;-71
2022/03/14 06:21:14;;;;;;;41.83;31.17;;;34.40;84.40;;;;;;4163732;28;20044;-70
2022/03/14 06:23:21;;;;;;;36.10;30.13;;;34.40;84.00;;;;;;4137031;28;20065;-71
2022/03/14 06:25:30;;;;;;;35.28;30.67;;;34.40;83.30;;;;;;4168520;28;20080;-71
2022/03/14 06:27:37;;;;;;;37.53;29.33;;;34.30;83.30;;;;;;4190053;28;20045;-70
2022/03/14 06:29:42;;;;;;;38.90;30.60;;;34.40;83.50;;;;;;4166965;28;20049;-70
2022/03/14 06:31:52;;;;;;;32.58;28.95;;;34.40;83.90;;;;;;4166764;28;20038;-69
2022/03/14 06:33:59;;;;;;;34.22;29.70;;;34.40;83.80;;;;;;4187860;28;20764;-70
2022/03/14 06:36:05;;;;;;;35.25;30.35;;;34.50;84.20;;;;;;4173566;28;20380;-71
2022/03/14 06:38:12;;;;;;;37.70;29.85;;;34.50;84.10;;;;;;4168156;28;20041;-71
2022/03/14 06:40:17;;;;;;;34.90;29.25;;;34.60;84.30;;;;;;4174837;28;20447;-71
2022/03/14 06:42:23;;;;;;;35.22;29.17;;;34.60;83.80;;;;;;4167723;28;20564;-70
2022/03/14 06:44:32;;;;;;;34.95;30.20;;;34.60;83.40;;;;;;4148463;28;20042;-71
2022/03/14 06:46:38;;;;;;;32.65;28.15;;;34.60;83.60;;;;;;4166160;28;20053;-70
2022/03/14 06:48:44;;;;;;;40.50;29.52;;;34.60;84.10;;;;;;4170327;28;20037;-71
2022/03/14 06:50:58;;;;;;;33.97;30.20;;;34.60;83.70;;;;;;4153145;28;20042;-71
2022/03/14 06:53:05;;;;;;;38.40;29.38;;;34.60;83.70;;;;;;4162388;28;20463;-72
2022/03/14 06:55:11;;;;;;;31.17;27.88;;;34.70;83.50;;;;;;4170757;28;20057;-71
2022/03/14 06:57:19;;;;;;;32.78;29.20;;;34.70;83.60;;;;;;4141103;28;20042;-72
2022/03/14 06:59:48;;;;;;;32.92;29.38;;;34.70;84.50;;;;;;4194716;28;20041;-70
2022/03/14 07:01:54;;;;;;;35.42;31.25;;;34.80;84.20;;;;;;4173905;28;20052;-71
2022/03/14 07:04:02;;;;;;;34.15;29.95;;;34.80;83.20;;;;;;4200401;28;20435;-73
2022/03/14 07:06:09;;;;;;;36.67;29.52;;;34.70;82.90;;;;;;4191328;28;20510;-72
2022/03/14 07:08:17;;;;;;;32.35;27.67;;;34.80;82.80;;;;;;4177438;28;20076;-71
2022/03/14 07:10:28;;;;;;;32.03;28.45;;;34.80;82.10;;;;;;4175259;28;20088;-71
2022/03/14 07:12:45;;;;;;;31.33;28.05;;;34.80;82.20;;;;;;4160495;28;20057;-72
2022/03/14 07:14:53;;;;;;;31.95;27.58;;;34.80;82.70;;;;;;4177292;28;20046;-71
2022/03/14 07:17:00;;;;;;;33.38;27.70;;;34.80;83.70;;;;;;4196187;28;20059;-72
2022/03/14 07:19:12;;;;;;;32.55;28.25;;;34.90;83.50;;;;;;4163052;28;20042;-71
2022/03/14 07:21:17;;;;;;;32.53;28.25;;;35.00;83.30;;;;;;4177061;28;20045;-71
2022/03/14 07:23:24;;;;;;;31.02;27.67;;;35.00;83.20;;;;;;4177829;28;20119;-73
2022/03/14 07:25:37;;;;;;;31.50;28.10;;;35.00;83.10;;;;;;4176988;28;20042;-70
2022/03/14 07:27:42;;;;;;;32.17;26.27;;;35.00;83.00;;;;;;4173423;28;20064;-72
2022/03/14 07:29:49;;;;;;;34.78;28.50;;;35.10;82.10;;;;;;4145496;28;20049;-71
2022/03/14 07:32:05;;;;;;;33.90;27.67;;;35.00;81.30;;;;;;4170039;28;20056;-68
2022/03/14 07:34:11;;;;;;;31.90;27.13;;;35.10;81.30;;;;;;4180959;28;20049;-70
2022/03/14 07:36:23;;;;;;;31.25;27.38;;;35.00;81.30;;;;;;4130417;28;20078;-71
2022/03/14 07:38:35;;;;;;;31.85;27.30;;;35.00;81.50;;;;;;4151210;28;20041;-71
2022/03/14 07:40:42;;;;;;;31.70;28.23;;;35.10;81.20;;;;;;4145187;28;20038;-70
2022/03/14 07:42:53;;;;;;;36.25;28.27;;;35.00;80.70;;;;;;4162063;28;20487;-72
2022/03/14 07:45:37;;;;;;;29.95;26.75;;;35.00;80.90;;;;;;4163218;28;20034;-72
2022/03/14 07:47:42;;;;;;;29.83;26.65;;;35.00;79.90;;;;;;4179984;28;20052;-70
2022/03/14 07:50:01;;;;;;;32.47;27.05;;;35.00;80.30;;;;;;4179215;28;20048;-71
2022/03/14 07:52:10;;;;;;;32.50;28.48;;;35.00;80.60;;;;;;4143264;28;20050;-70
2022/03/14 07:54:16;;;;;;;31.33;27.98;;;35.00;80.70;;;;;;4153110;28;20136;-70
2022/03/14 07:56:25;;;;;;;29.65;26.73;;;35.00;80.20;;;;;;4160970;28;20042;-70
2022/03/14 07:58:30;;;;;;;30.40;26.95;;;35.10;80.00;;;;;;4154107;28;20524;-70
2022/03/14 08:00:34;;;;;;;32.80;25.80;;;35.10;78.80;;;;;;4165547;28;20037;-71
2022/03/14 08:02:39;;;;;;;28.52;24.45;;;35.10;78.30;;;;;;4152335;28;20048;-70
2022/03/14 08:04:44;;;;;;;29.35;24.17;;;35.10;77.60;;;;;;4161245;28;20048;-72
2022/03/14 08:06:49;;;;;;;29.48;26.30;;;35.10;78.00;;;;;;4163421;28;20492;-70
2022/03/14 08:09:02;;;;;;;31.20;25.45;;;35.10;77.50;;;;;;4164498;28;20193;-70
2022/03/14 08:11:09;;;;;;;31.17;25.85;;;35.10;77.60;;;;;;4164389;28;20103;-70
2022/03/14 08:13:13;;;;;;;29.35;25.55;;;35.10;78.20;;;;;;4164797;28;20068;-71
2022/03/14 08:15:23;;;;;;;32.17;24.83;;;35.10;78.40;;;;;;4165307;28;20164;-71
2022/03/14 08:17:29;;;;;;;28.35;25.15;;;35.10;78.30;;;;;;4166125;28;20045;-71
2022/03/14 08:19:34;;;;;;;29.63;25.02;;;35.10;78.00;;;;;;4164667;28;20080;-70
2022/03/14 08:21:41;;;;;;;28.80;25.50;;;35.10;78.20;;;;;;4166019;28;20065;-70
2022/03/14 08:23:50;;;;;;;29.40;25.35;;;35.10;78.20;;;;;;4165748;28;20045;-70
2022/03/14 08:25:55;;;;;;;29.42;24.85;;;35.10;78.00;;;;;;4163545;28;20088;-70
2022/03/14 08:28:02;;;;;;;29.02;25.73;;;35.10;78.30;;;;;;4165626;28;20045;-71
2022/03/14 08:30:09;;;;;;;32.78;25.70;;;35.10;78.90;;;;;;4165269;28;20080;-71
2022/03/14 08:32:13;;;;;;;31.42;25.45;;;35.10;79.20;;;;;;4164542;28;20053;-71
2022/03/14 08:34:25;;;;;;;30.55;24.38;;;35.10;79.50;;;;;;4167216;28;20053;-73
2022/03/14 08:36:40;;;;;;;28.60;25.35;;;35.10;79.80;;;;;;4168376;28;20091;-70
2022/03/14 08:38:44;;;;;;;27.92;24.65;;;35.10;79.20;;;;;;4165165;28;21508;-70
2022/03/14 08:40:51;;;;;;;31.58;25.95;;;35.10;79.00;;;;;;4171532;28;20044;-71
2022/03/14 08:42:58;;;;;;;31.58;27.00;;;35.10;79.00;;;;;;4165483;28;20061;-72
2022/03/14 08:45:04;;;;;;;37.30;26.73;;;35.10;79.20;;;;;;4166284;28;20041;-70
2022/03/14 08:47:14;;;;;;;29.77;26.58;;;35.10;79.40;;;;;;4166889;28;20129;-68
2022/03/14 08:49:24;;;;;;;30.23;26.30;;;35.10;79.80;;;;;;4158077;28;20535;-68
2022/03/14 08:51:31;;;;;;;29.05;25.02;;;35.10;79.40;;;;;;4167885;28;20053;-69
2022/03/14 08:53:38;;;;;;;31.83;25.63;;;35.10;79.10;;;;;;4160708;28;20045;-70
2022/03/14 08:55:45;;;;;;;29.67;25.33;;;35.10;79.20;;;;;;4166289;28;20042;-69
2022/03/14 08:57:49;;;;;;;31.75;26.30;;;35.10;79.30;;;;;;4166328;28;20128;-69
2022/03/14 08:59:56;;;;;;;29.88;26.75;;;35.10;79.50;;;;;;4167784;28;20176;-70
2022/03/14 09:02:02;;;;;;;29.30;25.77;;;35.10;79.60;;;;;;4193928;28;20032;-70
2022/03/14 09:04:08;;;;;;;29.90;26.48;;;35.10;79.40;;;;;;4162992;28;20061;-70
2022/03/14 09:06:14;;;;;;;29.27;25.63;;;35.10;79.10;;;;;;4167608;28;20034;-69
2022/03/14 09:08:19;;;;;;;32.17;25.58;;;35.00;79.10;;;;;;4167701;28;20050;-70
2022/03/14 09:10:24;;;;;;;33.30;27.27;;;35.00;79.30;;;;;;4167641;28;20111;-70
2022/03/14 09:12:32;;;;;;;31.42;26.92;;;35.00;79.30;;;;;;4166085;28;20136;-70
2022/03/14 09:14:40;;;;;;;32.65;27.88;;;35.00;79.20;;;;;;4161358;28;20041;-71
2022/03/14 09:16:47;;;;;;;37.92;27.73;;;35.00;79.50;;;;;;4163375;28;20045;-69
2022/03/14 09:18:54;;;;;;;33.65;27.05;;;35.00;79.60;;;;;;4166496;28;20042;-70
2022/03/14 09:21:00;;;;;;;34.08;27.00;;;34.90;79.50;;;;;;4165200;28;20136;-70
2022/03/14 09:23:06;;;;;;;34.55;26.85;;;34.90;79.50;;;;;;4165202;28;20077;-70
2022/03/14 09:25:12;;;;;;;33.85;28.40;;;34.90;79.30;;;;;;4166703;28;20045;-71
2022/03/14 09:27:18;;;;;;;32.70;29.17;;;34.80;79.30;;;;;;4165590;28;20133;-69
2022/03/14 09:29:23;;;;;;;38.60;32.10;;;34.90;79.50;;;;;;4165838;28;20751;-70
2022/03/14 09:31:29;;;;;;;36.25;29.88;;;34.80;79.70;;;;;;4164277;28;20539;-70
2022/03/14 09:33:36;;;;;;;31.38;27.98;;;34.80;80.10;;;;;;4164285;28;20061;-68
2022/03/14 09:35:40;;;;;;;29.65;26.67;;;34.80;80.40;;;;;;4168024;28;20045;-69
2022/03/14 09:37:46;;;;;;;31.83;27.00;;;34.80;81.10;;;;;;4165972;28;20049;-69
2022/03/14 09:39:53;;;;;;;30.70;26.73;;;34.80;80.60;;;;;;4164497;28;20152;-68
2022/03/14 09:42:02;;;;;;;31.42;28.10;;;34.80;80.80;;;;;;4165008;28;20443;-71
2022/03/14 09:44:13;;;;;;;34.40;28.42;;;34.80;80.80;;;;;;4164825;28;20118;-70
2022/03/14 09:46:21;;;;;;;37.47;29.73;;;34.80;80.90;;;;;;4161443;28;20103;-70
2022/03/14 09:48:31;;;;;;;36.00;29.50;;;34.70;81.40;;;;;;4165328;28;20529;-70
2022/03/14 09:50:39;;;;;;;34.10;28.30;;;34.70;81.60;;;;;;4186867;28;20048;-71
2022/03/14 09:52:44;;;;;;;31.73;27.88;;;34.70;82.10;;;;;;4163275;28;20144;-69
2022/03/14 09:54:49;;;;;;;34.13;27.75;;;34.70;82.50;;;;;;4163511;28;20060;-70
2022/03/14 09:56:56;;;;;;;31.33;26.67;;;34.70;82.60;;;;;;4184141;28;20052;-70
2022/03/14 09:59:04;;;;;;;30.40;27.27;;;34.60;82.80;;;;;;4144713;28;20137;-69
2022/03/14 10:01:08;;;;;;;34.25;26.80;;;34.60;83.00;;;;;;4165687;28;20159;-69
2022/03/14 10:03:16;;;;;;;32.97;28.63;;;34.60;83.30;;;;;;4164189;28;20565;-70
2022/03/14 10:05:24;;;;;;;30.70;26.92;;;34.60;83.60;;;;;;4166090;28;20072;-69
2022/03/14 10:07:28;;;;;;;36.28;27.10;;;34.50;83.60;;;;;;4165671;28;20601;-69
2022/03/14 10:09:35;;;;;;;41.50;28.27;;;34.50;83.90;;;;;;4163963;28;20081;-69
2022/03/14 10:11:42;;;;;;;49.13;27.98;;;34.50;83.90;;;;;;4165110;28;20099;-69
2022/03/14 10:13:46;;;;;;;44.72;27.50;;;34.50;84.20;;;;;;4165771;28;20088;-70
2022/03/14 10:15:53;;;;;;;40.55;27.65;;;34.40;84.10;;;;;;4166066;28;20041;-69
2022/03/14 10:18:02;;;;;;;38.08;26.55;;;34.40;84.40;;;;;;4163704;28;20059;-70
2022/03/14 10:20:07;;;;;;;38.35;27.50;;;34.30;84.50;;;;;;4165751;28;20559;-69
2022/03/14 10:22:15;;;;;;;48.60;28.45;;;34.40;84.80;;;;;;4152051;28;20038;-68
2022/03/14 10:24:23;;;;;;;40.05;26.70;;;34.30;84.80;;;;;;4147907;28;20148;-69
2022/03/14 10:26:29;;;;;;;37.42;27.30;;;34.30;85.00;;;;;;4158417;28;20053;-70
2022/03/14 10:28:38;;;;;;;39.47;28.17;;;34.30;84.80;;;;;;4160578;28;20049;-69
2022/03/14 10:31:03;;;;;;;37.13;28.50;;;34.20;84.90;;;;;;4164804;28;20055;-68
2022/03/14 10:33:12;;;;;;;39.03;29.85;;;34.20;84.90;;;;;;4167235;28;20055;-70
2022/03/14 10:35:21;;;;;;;50.70;34.40;;;34.20;84.90;;;;;;4169783;28;20046;-69
2022/03/14 10:37:31;;;;;;;43.88;32.78;;;34.10;84.90;;;;;;4158910;28;20053;-70
2022/03/14 10:39:37;;;;;;;41.13;32.45;;;34.10;85.20;;;;;;4170088;28;20092;-68
2022/03/14 10:41:47;;;;;;;42.33;33.10;;;34.10;85.40;;;;;;4163079;28;20037;-69
2022/03/14 10:44:30;;;;;;;43.05;31.73;;;34.10;85.60;;;;;;4165968;28;20041;-70
2022/03/14 10:46:39;;;;;;;40.92;32.85;;;34.00;85.60;;;;;;4164229;28;20056;-70
2022/03/14 10:48:46;;;;;;;41.80;31.50;;;34.00;85.80;;;;;;4166696;28;20492;-70
2022/03/14 10:50:52;;;;;;;40.25;32.65;;;34.00;86.10;;;;;;4133547;28;20050;-70
2022/03/14 10:53:09;;;;;;;42.67;33.58;;;34.00;86.30;;;;;;4101649;28;20067;-71
2022/03/14 10:55:15;;;;;;;42.53;34.60;;;33.90;86.70;;;;;;4123876;28;20051;-71
2022/03/14 10:57:30;;;;;;;41.40;33.35;;;33.90;86.80;;;;;;4124417;28;20050;-71
2022/03/14 10:59:39;;;;;;;38.20;30.30;;;33.80;86.90;;;;;;4112406;28;20038;-71
2022/03/14 11:01:59;;;;;;;41.42;32.65;;;33.80;87.40;;;;;;4114658;28;20050;-70
2022/03/14 11:04:06;;;;;;;37.03;29.27;;;33.70;87.60;;;;;;4115381;28;20043;-71
2022/03/14 11:06:19;;;;;;;41.35;29.65;;;33.60;87.80;;;;;;4113488;28;20356;-71